createdAt,value
2023-03-23T15:58:14.710Z,97060.00
2023-03-23T16:00:44.445Z,97054.40
2023-03-23T16:03:25.174Z,97055.40
2023-03-23T16:05:52.140Z,97056.80
2023-03-23T16:08:18.886Z,97056.40
2023-03-23T16:10:46.311Z,97054.60
2023-03-23T16:13:12.999Z,97048.80
2023-03-23T16:15:39.670Z,97050.80
2023-03-23T16:18:06.449Z,97050.20
2023-03-23T16:20:33.274Z,97050.80
2023-03-23T16:23:01.121Z,97050.00
2023-03-23T16:25:27.897Z,97047.60
2023-03-23T16:27:54.544Z,97050.40
2023-03-23T16:30:25.818Z,97053.40
2023-03-23T16:32:54.853Z,97059.20
2023-03-23T16:35:23.888Z,97050.60
2023-03-23T16:38:08.374Z,97051.80
2023-03-23T16:40:38.600Z,97052.40
2023-03-23T16:43:09.325Z,97051.80
2023-03-23T16:45:40.988Z,97053.00
2023-03-23T16:48:11.137Z,97054.00
2023-03-23T16:50:39.455Z,97056.40
2023-03-23T16:53:08.613Z,97059.60
2023-03-23T16:55:37.569Z,97055.20
2023-03-23T16:58:16.324Z,97055.40
2023-03-23T17:00:48.959Z,97057.80
2023-03-23T17:03:17.721Z,97055.60
2023-03-23T17:05:45.731Z,97052.20
2023-03-23T17:08:12.991Z,97049.80
2023-03-23T17:10:41.368Z,97047.60
2023-03-23T17:13:08.771Z,97058.40
2023-03-23T17:15:46.412Z,97066.00
2023-03-23T17:18:14.740Z,97074.40
2023-03-23T17:20:41.340Z,97077.00
2023-03-23T17:23:07.997Z,97078.80
2023-03-23T17:25:34.887Z,97074.20
2023-03-23T17:28:05.645Z,97075.40
2023-03-23T17:30:35.386Z,97075.60
2023-03-23T17:33:02.685Z,97076.20
2023-03-23T17:35:29.784Z,97076.00
2023-03-23T17:37:56.430Z,97070.00
2023-03-23T17:40:23.127Z,97067.80
2023-03-23T17:42:49.742Z,97069.80
2023-03-23T17:45:16.678Z,97066.40
2023-03-23T17:47:43.267Z,97070.40
2023-03-23T17:50:11.908Z,97071.00
2023-03-23T17:52:41.827Z,97073.60
2023-03-23T17:55:09.568Z,97077.80
2023-03-23T17:57:36.259Z,97082.20
2023-03-23T18:00:09.849Z,97079.80
2023-03-23T18:02:37.332Z,97081.60
2023-03-23T18:05:06.482Z,97078.40
2023-03-23T18:07:33.105Z,97071.20
2023-03-23T18:10:01.221Z,97076.80
2023-03-23T18:12:31.331Z,97076.40
2023-03-23T18:14:58.696Z,97084.00
2023-03-23T18:17:26.217Z,97084.40
2023-03-23T18:19:53.017Z,97089.00
2023-03-23T18:22:19.746Z,97086.60
2023-03-23T18:24:47.478Z,97093.00
2023-03-23T18:27:14.717Z,97091.00
2023-03-23T18:29:41.656Z,97094.20
2023-03-23T18:32:08.576Z,97093.00
2023-03-23T18:34:36.898Z,97099.00
2023-03-23T18:37:04.419Z,97101.00
2023-03-23T18:39:38.060Z,97100.40
2023-03-23T18:42:06.314Z,97104.20
2023-03-23T18:44:33.187Z,97107.80
2023-03-23T18:47:00.243Z,97107.40
2023-03-23T18:49:28.493Z,97113.00
2023-03-23T18:51:55.076Z,97111.60
2023-03-23T18:54:21.709Z,97111.20
2023-03-23T18:56:48.341Z,97109.20
2023-03-23T18:59:14.924Z,97112.00
2023-03-23T19:01:41.633Z,97117.40
2023-03-23T19:04:08.263Z,97112.00
2023-03-23T19:06:35.297Z,97112.20
2023-03-23T19:09:02.557Z,97118.60
2023-03-23T19:11:29.221Z,97118.60
2023-03-23T19:16:26.899Z,97120.20
2023-03-23T19:18:53.504Z,97121.40
2023-03-23T19:21:24.911Z,97122.20
2023-03-23T19:23:52.766Z,97124.20
2023-03-23T19:26:36.898Z,97122.80
2023-03-23T19:31:46.430Z,97122.60
2023-03-23T19:34:15.478Z,97127.00
2023-03-23T19:36:50.281Z,97126.60
2023-03-23T19:39:22.062Z,97129.20
2023-03-23T19:41:49.827Z,97135.60
2023-03-23T19:44:17.929Z,97137.60
2023-03-23T19:46:45.335Z,97137.00
2023-03-23T19:49:12.314Z,97138.80
2023-03-23T19:51:39.803Z,97140.40
2023-03-23T19:54:07.958Z,97134.60
2023-03-23T19:56:35.235Z,97134.40
2023-03-23T19:59:02.119Z,97136.60
2023-03-23T20:01:28.945Z,97142.20
2023-03-23T20:03:59.730Z,97142.60
2023-03-23T20:06:29.256Z,97143.80
2023-03-23T20:09:00.101Z,97148.00
2023-03-23T20:11:29.447Z,97150.60
2023-03-23T20:13:57.696Z,97146.80
2023-03-23T20:16:25.629Z,97148.20
2023-03-23T20:18:53.516Z,97148.20
2023-03-23T20:21:25.020Z,97149.40
2023-03-23T20:23:55.913Z,97153.40
2023-03-23T20:26:36.003Z,97158.40
2023-03-23T20:29:03.835Z,97158.60
2023-03-23T20:31:38.369Z,97154.40
2023-03-23T20:34:13.918Z,97154.60
2023-03-23T20:36:44.977Z,97152.80
2023-03-23T20:39:21.421Z,97153.00
2023-03-23T20:41:50.907Z,97156.40
2023-03-23T20:44:19.917Z,97155.40
2023-03-23T20:46:49.777Z,97149.20
2023-03-23T20:49:18.836Z,97147.00
2023-03-23T20:51:46.885Z,97149.80
2023-03-23T20:54:15.822Z,97161.20
2023-03-23T20:56:44.640Z,97160.80
2023-03-23T20:59:11.742Z,97161.60
2023-03-23T21:01:39.974Z,97158.40
2023-03-23T21:04:14.912Z,97160.80
2023-03-23T21:06:45.166Z,97161.60
2023-03-23T21:09:13.532Z,97160.80
2023-03-23T21:11:40.200Z,97157.80
2023-03-23T21:14:06.862Z,97157.80
2023-03-23T21:16:34.210Z,97154.80
2023-03-23T21:19:02.332Z,97152.60
2023-03-23T21:21:29.481Z,97148.40
2023-03-23T21:23:57.642Z,97144.40
2023-03-23T21:26:28.310Z,97145.80
2023-03-23T21:29:00.073Z,97142.80
2023-03-23T21:31:30.696Z,97140.80
2023-03-23T21:34:00.972Z,97137.20
2023-03-23T21:36:28.700Z,97138.80
2023-03-23T21:38:56.979Z,97136.80
2023-03-23T21:41:24.700Z,97135.80
2023-03-23T21:43:51.635Z,97131.80
2023-03-23T21:46:18.504Z,97134.00
2023-03-23T21:48:51.584Z,97134.60
2023-03-23T21:51:29.865Z,97143.20
2023-03-23T21:53:57.271Z,97140.20
2023-03-23T21:56:27.453Z,97138.40
2023-03-23T21:58:56.591Z,97129.00
2023-03-23T22:01:24.648Z,97130.60
2023-03-23T22:03:51.902Z,97124.60
2023-03-23T22:06:28.184Z,97127.20
2023-03-23T22:08:56.246Z,97138.00
2023-03-23T22:11:27.501Z,97136.60
2023-03-23T22:13:57.050Z,97143.20
2023-03-23T22:16:25.510Z,97140.60
2023-03-23T22:18:55.406Z,97138.60
2023-03-23T22:21:27.753Z,97135.20
2023-03-23T22:23:58.371Z,97134.20
2023-03-23T22:26:27.760Z,97132.20
2023-03-23T22:28:56.527Z,97128.60
2023-03-23T22:31:28.320Z,97128.60
2023-03-23T22:33:57.011Z,97134.60
2023-03-23T22:36:26.248Z,97133.00
2023-03-23T22:38:55.620Z,97129.80
2023-03-23T22:41:31.576Z,97130.60
2023-03-23T22:43:58.289Z,97120.40
2023-03-23T22:46:25.546Z,97112.80
2023-03-23T22:48:52.565Z,97110.20
2023-03-23T22:51:20.400Z,97111.80
2023-03-23T22:53:47.805Z,97111.00
2023-03-23T22:56:14.897Z,97108.60
2023-03-23T22:58:41.596Z,97107.00
2023-03-23T23:01:14.897Z,97095.40
2023-03-23T23:03:42.019Z,97095.60
2023-03-23T23:06:12.185Z,97096.20
2023-03-23T23:08:41.234Z,97099.40
2023-03-23T23:11:11.188Z,97098.60
2023-03-23T23:13:40.053Z,97096.60
2023-03-23T23:16:09.216Z,97094.60
2023-03-23T23:18:37.144Z,97101.20
2023-03-23T23:21:10.442Z,97102.60
2023-03-23T23:23:37.517Z,97102.00
2023-03-23T23:26:05.226Z,97097.80
2023-03-23T23:28:32.204Z,97094.80
2023-03-23T23:30:59.597Z,97089.00
2023-03-23T23:33:27.158Z,97084.80
2023-03-23T23:35:54.456Z,97086.40
2023-03-23T23:38:21.375Z,97081.00
2023-03-23T23:40:48.239Z,97078.20
2023-03-23T23:43:16.725Z,97080.80
2023-03-23T23:45:44.307Z,97082.80
2023-03-23T23:48:12.486Z,97077.40
2023-03-23T23:50:39.402Z,97075.60
2023-03-23T23:53:06.250Z,97075.20
2023-03-23T23:55:33.244Z,97067.00
2023-03-23T23:58:00.185Z,97065.00
